Data for 10/24/2008

Time Sea-Level Adjusted Pressure Absolute Pressure Temperature Relative Humidity Dew Point   
(mb) (inHg) (mb) (inHg) (C) (F) (%) (C) (F)
00:05 1022 30.18 851 25.13 4.6 40.4 61 -2.3 27.8
00:10 1022 30.18 851 25.13 4.4 39.9 63 -2.1 28.2
00:15 1022 30.18 851 25.13 4.2 39.6 60 -2.8 27
00:20 1022 30.18 851 25.13 5 41 58 -2.7 27.2
00:25 1022 30.18 851 25.13 5.2 41.4 56 -2.8 27
00:30 1022 30.18 851 25.13 5.3 41.6 55 -3 26.6
00:35 1022 30.18 851 25.13 5.4 41.8 53 -3.3 26
00:40 1022 30.18 851 25.13 5.7 42.3 53 -3 26.5
00:45 1022 30.18 852 25.16 5.7 42.3 53 -3 26.6
00:50 1022 30.18 852 25.16 5.2 41.3 58 -2.4 27.7
00:55 1022 30.18 852 25.16 4.4 39.9 60 -2.7 27.2
01:00 1022 30.18 852 25.16 4.5 40.1 57 -3.3 26
01:05 1022 30.18 852 25.16 5 41.1 54 -3.5 25.6
01:10 1023 30.21 852 25.16 5.2 41.4 53 -3.5 25.7
01:15 1023 30.21 852 25.16 5.2 41.4 53 -3.6 25.5
01:20 1023 30.21 852 25.16 5.3 41.5 55 -2.9 26.7
01:25 1023 30.21 852 25.16 4.6 40.2 57 -3.2 26.2
01:30 1023 30.21 852 25.16 4.5 40.1 56 -3.5 25.7
01:35 1023 30.21 852 25.16 4.6 40.3 54 -3.9 25.1
01:40 1023 30.21 852 25.16 4.9 40.7 54 -3.7 25.3
01:45 1023 30.21 852 25.16 4.8 40.6 55 -3.6 25.6
01:50 1023 30.21 852 25.16 4.7 40.4 54 -4 24.8
01:55 1023 30.21 852 25.16 4.6 40.4 53 -4 24.7
02:00 1023 30.21 852 25.16 4.6 40.3 55 -3.6 25.4
02:05 1023 30.21 852 25.16 3.9 39.1 58 -3.6 25.5
02:10 1023 30.21 852 25.16 3.5 38.3 59 -3.6 25.4
02:15 1023 30.21 852 25.16 3.5 38.2 58 -3.9 24.9
02:20 1023 30.21 852 25.16 3.6 38.4 58 -3.9 25
02:25 1023 30.21 852 25.16 3.5 38.2 57 -4.3 24.3
02:30 1023 30.21 852 25.16 4.1 39.3 51 -5.2 22.7
02:35 1023 30.21 852 25.16 5 41.1 48 -5 23
02:40 1023 30.21 852 25.16 5.5 41.9 47 -4.9 23.2
02:45 1023 30.21 852 25.16 5.6 42.1 47 -4.7 23.5
02:50 1023 30.21 852 25.16 5.7 42.3 48 -4.4 24.1
02:55 1023 30.21 852 25.16 4.5 40.1 55 -3.8 25.1
03:00 1023 30.21 852 25.16 4.3 39.7 53 -4.5 24
03:05 1023 30.21 852 25.16 4.3 39.7 56 -3.6 25.5
03:10 1023 30.21 852 25.16 3.7 38.7 59 -3.5 25.6
03:15 1023 30.21 852 25.16 3.3 37.9 62 -3.4 26
03:20 1023 30.21 852 25.16 3.2 37.7 61 -3.6 25.6
03:25 1023 30.21 852 25.16 3.3 38 62 -3.3 26
03:30 1023 30.21 852 25.16 3.4 38.2 61 -3.5 25.8
03:35 1023 30.21 852 25.16 3 37.5 62 -3.5 25.7
03:40 1023 30.21 852 25.16 2.6 36.7 63 -3.7 25.4
03:45 1023 30.21 852 25.16 2.5 36.4 64 -3.7 25.3
03:50 1023 30.21 852 25.16 2.6 36.6 63 -3.9 25
03:55 1023 30.21 852 25.16 2.8 37 64 -3.3 26
04:00 1023 30.21 852 25.16 2.9 37.1 59 -4.3 24.2
04:05 1023 30.21 852 25.16 3.6 38.5 57 -4.1 24.6
04:10 1023 30.21 852 25.16 3.4 38.1 61 -3.5 25.7
04:15 1023 30.21 852 25.16 2.7 36.8 63 -3.7 25.4
04:20 1023 30.21 852 25.16 2.5 36.4 64 -3.6 25.6
04:25 1023 30.21 852 25.16 2.3 36.1 65 -3.5 25.7
04:30 1023 30.21 852 25.16 2.3 36.2 65 -3.6 25.5
04:35 1023 30.21 852 25.16 2.3 36.1 65 -3.5 25.6
04:40 1023 30.21 852 25.16 2.3 36.1 66 -3.5 25.8
04:45 1023 30.21 852 25.16 2.1 35.8 66 -3.5 25.6
04:50 1023 30.21 852 25.16 2 35.5 67 -3.5 25.8
04:55 1023 30.21 852 25.16 2.1 35.8 65 -3.7 25.3
05:00 1023 30.21 852 25.16 2 35.6 66 -3.7 25.3
05:05 1023 30.21 852 25.16 2.1 35.8 63 -4.2 24.4
05:10 1023 30.21 852 25.16 2.5 36.4 62 -4.1 24.7
05:15 1023 30.21 852 25.16 2.8 37 61 -3.9 25
05:20 1023 30.21 852 25.16 2.7 36.9 62 -3.8 25.2
05:25 1023 30.21 852 25.16 2.7 36.9 62 -3.9 24.9
05:30 1023 30.21 852 25.16 2.7 36.9 63 -3.5 25.6
05:35 1023 30.21 852 25.16 2.4 36.3 64 -3.7 25.3
05:40 1023 30.21 852 25.16 2 35.6 65 -3.8 25.1
05:45 1023 30.21 852 25.16 2.1 35.8 64 -4 24.9
05:50 1023 30.21 852 25.16 2.3 36.2 64 -3.9 25
05:55 1023 30.21 852 25.16 2.3 36.1 64 -3.9 25
06:00 1023 30.21 852 25.16 2.4 36.3 63 -3.9 24.9
06:05 1023 30.21 852 25.16 2.2 35.9 65 -3.7 25.4
06:10 1023 30.21 852 25.16 1.9 35.3 66 -3.8 25.1
06:15 1023 30.21 852 25.16 2 35.5 65 -3.9 25.1
06:20 1023 30.21 852 25.16 1.8 35.2 67 -3.8 25.2
06:25 1023 30.21 852 25.16 1.6 34.9 67 -3.9 25
06:30 1023 30.21 852 25.16 1.7 35 67 -3.9 25
06:35 1023 30.21 852 25.16 1.6 35 67 -3.9 25.1
06:40 1022 30.18 852 25.16 1.6 34.8 67 -3.9 25
06:45 1022 30.18 852 25.16 1.8 35.2 65 -4.1 24.7
06:50 1022 30.18 852 25.16 2 35.5 66 -3.7 25.3
06:55 1022 30.18 852 25.16 2.2 35.9 64 -3.8 25.1
07:00 1022 30.18 852 25.16 2.4 36.2 64 -3.7 25.3
07:05 1022 30.18 852 25.16 2.1 35.8 64 -4 24.8
07:10 1023 30.21 852 25.16 2.1 35.8 66 -3.6 25.5
07:15 1023 30.21 852 25.16 2 35.6 66 -3.7 25.4
07:20 1023 30.21 852 25.16 1.9 35.3 66 -3.8 25.1
07:25 1023 30.21 852 25.16 1.7 35 67 -3.9 25
07:30 1022 30.18 852 25.16 1.5 34.8 67 -3.9 25
07:35 1022 30.18 852 25.16 1.5 34.8 67 -3.9 24.9
07:40 1022 30.18 851 25.13 1.5 34.8 67 -4 24.8
07:45 1022 30.18 851 25.13 1.4 34.5 68 -3.8 25.1
07:50 1022 30.18 851 25.13 1.2 34.2 68 -4 24.8
07:55 1022 30.18 851 25.13 1.2 34.1 68 -4 24.8
08:00 1022 30.18 851 25.13 1.2 34.2 68 -4 24.7
08:05 1022 30.18 851 25.13 1.2 34.2 69 -4 24.9
08:10 1022 30.18 851 25.13 1.3 34.3 67 -4.1 24.6
08:15 1022 30.18 852 25.16 1.4 34.5 67 -4.1 24.6
08:20 1022 30.18 852 25.16 1.6 34.9 66 -4.1 24.6
08:25 1023 30.21 852 25.16 1.9 35.4 65 -4 24.8
08:30 1023 30.21 852 25.16 2 35.6 64 -4.1 24.7
08:35 1023 30.21 852 25.16 2.4 36.3 63 -4 24.8
08:40 1023 30.21 852 25.16 2.4 36.4 64 -3.8 25.2
08:45 1023 30.21 852 25.16 2.6 36.6 61 -4.1 24.6
08:50 1023 30.21 852 25.16 3.1 37.5 62 -3.6 25.6
08:55 1023 30.21 852 25.16 3.2 37.7 61 -3.6 25.5
09:00 1023 30.21 852 25.16 3.3 37.9 61 -3.4 25.8
09:05 1023 30.21 852 25.16 3 37.5 62 -3.5 25.6
09:10 1023 30.21 852 25.16 3.3 37.9 60 -3.6 25.5
09:15 1023 30.21 852 25.16 3.5 38.3 59 -3.8 25.2
09:20 1023 30.21 852 25.16 4.2 39.6 57 -3.5 25.8
09:25 1023 30.21 852 25.16 4.5 40.2 55 -3.8 25.2
09:30 1023 30.21 852 25.16 4.8 40.7 55 -3.5 25.7
09:35 1023 30.21 852 25.16 5.4 41.7 53 -3.4 25.8
09:40 1023 30.21 852 25.16 5.8 42.4 52 -3.2 26.3
09:45 1023 30.21 852 25.16 5.9 42.6 52 -3.3 26
09:50 1023 30.21 852 25.16 5.6 42.1 55 -2.7 27.1
09:55 1023 30.21 852 25.16 4.6 40.4 56 -3.4 25.9
10:00 1023 30.21 852 25.16 5.1 41.2 55 -3.1 26.4
10:05 1023 30.21 852 25.16 5 41 54 -3.5 25.8
10:10 1023 30.21 852 25.16 4.9 40.8 56 -3.2 26.3
10:15 1023 30.21 852 25.16 5.1 41.1 55 -3.3 26
10:20 1023 30.21 852 25.16 5.2 41.3 55 -3.2 26.3
10:25 1023 30.21 852 25.16 5.7 42.2 54 -2.9 26.8
10:30 1023 30.21 852 25.16 6.1 42.9 53 -2.8 27
10:35 1023 30.21 852 25.16 6.3 43.3 51 -3 26.5
10:40 1023 30.21 852 25.16 6.3 43.3 51 -3.1 26.5
10:45 1023 30.21 852 25.16 6.5 43.7 51 -2.9 26.7
10:50 1023 30.21 852 25.16 6.6 43.9 51 -2.9 26.7
10:55 1023 30.21 852 25.16 6.8 44.3 48 -3.3 26
11:00 1023 30.21 852 25.16 6.5 43.7 48 -3.7 25.3
11:05 1023 30.21 852 25.16 6.9 44.5 47 -3.7 25.3
11:10 1023 30.21 852 25.16 7.6 45.6 45 -3.6 25.5
11:15 1023 30.21 852 25.16 7.8 46 46 -3.2 26.3
11:20 1023 30.21 852 25.16 7 44.7 48 -3.3 26.1
11:25 1022 30.18 851 25.13 7 44.6 47 -3.6 25.5
11:30 1022 30.18 851 25.13 6.4 43.4 48 -3.9 24.9
11:35 1022 30.18 851 25.13 7.2 44.9 47 -3.5 25.7
11:40 1022 30.18 852 25.16 7.7 45.9 43 -3.9 24.9
11:45 1022 30.18 852 25.16 8.5 47.4 42 -3.6 25.6
11:50 1022 30.18 851 25.13 8.8 47.9 43 -3.1 26.4
11:55 1022 30.18 851 25.13 8.5 47.3 44 -3 26.6
12:00 1022 30.18 851 25.13 8.3 46.9 44 -3.1 26.4
12:05 1022 30.18 851 25.13 8.8 47.8 41 -3.6 25.6
12:10 1022 30.18 851 25.13 8.5 47.3 44 -3.1 26.4
12:15 1022 30.18 851 25.13 9.6 49.2 39 -3.8 25.1
12:20 1022 30.18 851 25.13 10.1 50.2 39 -3.1 26.3
12:25 1022 30.18 851 25.13 10.1 50.3 39 -3.2 26.3
12:30 1022 30.18 851 25.13 10.1 50.2 39 -3.1 26.4
12:35 1022 30.18 851 25.13 9.9 49.8 41 -2.8 27
12:40 1022 30.18 851 25.13 8.8 47.9 47 -1.9 28.6
12:45 1022 30.18 851 25.13 8.4 47.1 46 -2.4 27.7
12:50 1021 30.15 851 25.13 9.1 48.4 44 -2.4 27.6
12:55 1022 30.18 851 25.13 9.6 49.2 44 -2.1 28.1
13:00 1022 30.18 851 25.13 8.9 48 44 -2.6 27.2
13:05 1022 30.18 851 25.13 9.6 49.2 42 -2.7 27.1
13:10 1022 30.18 851 25.13 10.1 50.2 40 -2.8 27
13:15 1021 30.15 851 25.13 9.9 49.8 39 -3.2 26.2
13:20 1021 30.15 850 25.1 10.3 50.6 37 -3.6 25.6
13:25 1021 30.15 850 25.1 11.1 52 35 -3.6 25.6
13:30 1021 30.15 850 25.1 11 51.8 36 -3.4 26
13:35 1021 30.15 850 25.1 11.1 51.9 35 -3.7 25.3
13:40 1021 30.15 850 25.1 11.3 52.4 36 -3.1 26.5
13:45 1021 30.15 850 25.1 10.9 51.7 35 -4 24.8
13:50 1021 30.15 850 25.1 11.3 52.3 35 -3.5 25.7
13:55 1021 30.15 850 25.1 11.2 52.2 37 -2.8 27
14:00 1021 30.15 850 25.1 10.9 51.6 37 -3.1 26.4
14:05 1021 30.15 850 25.1 10.5 50.9 39 -2.7 27.2
14:10 1021 30.15 850 25.1 9.6 49.3 40 -3.5 25.8
14:15 1021 30.15 850 25.1 10.3 50.5 39 -3 26.7
14:20 1021 30.15 850 25.1 10.7 51.2 36 -3.8 25.2
14:25 1021 30.15 850 25.1 11.4 52.4 35 -3.5 25.7
14:30 1020 30.12 850 25.1 11.7 53 35 -3.2 26.2
14:35 1020 30.12 850 25.1 11.7 53.1 34 -3.7 25.4
14:40 1020 30.12 850 25.1 11.8 53.2 34 -3.5 25.8
14:45 1020 30.12 850 25.1 11.6 52.9 33 -3.9 24.9
14:50 1020 30.12 849 25.07 11.7 53.1 33 -4.1 24.6
14:55 1020 30.12 850 25.1 11.7 53.1 33 -4 24.8
15:00 1020 30.12 850 25.1 11.7 53.1 33 -4 24.7
15:05 1020 30.12 850 25.1 11.7 53 35 -3.2 26.2
15:10 1020 30.12 850 25.1 11.7 53 33 -3.9 25
15:15 1020 30.12 850 25.1 11.5 52.8 34 -3.8 25.1
15:20 1020 30.12 849 25.07 11.5 52.7 34 -4 24.9
15:25 1020 30.12 849 25.07 11.7 53 33 -4.1 24.6
15:30 1020 30.12 849 25.07 11.8 53.2 32 -4.5 23.8
15:35 1020 30.12 849 25.07 11.7 53.1 32 -4.3 24.2
15:40 1020 30.12 849 25.07 11.5 52.7 33 -4.3 24.3
15:45 1020 30.12 849 25.07 11.3 52.4 33 -4.4 24.1
15:50 1020 30.12 849 25.07 11.5 52.7 33 -4.4 24.1
15:55 1020 30.12 849 25.07 11 51.9 33 -4.8 23.4
16:00 1020 30.12 849 25.07 11 51.8 33 -4.7 23.5
16:05 1020 30.12 849 25.07 10.8 51.5 33 -4.9 23.2
16:10 1020 30.12 849 25.07 11 51.8 34 -4.3 24.3
16:15 1020 30.12 849 25.07 11.1 52 34 -4.2 24.5
16:20 1020 30.12 849 25.07 10.9 51.6 36 -3.4 25.8
16:25 1020 30.12 849 25.07 10.3 50.5 35 -4.4 24.1
16:30 1020 30.12 849 25.07 10 50 36 -4.2 24.5
16:35 1020 30.12 849 25.07 10.4 50.8 36 -4.2 24.5
16:40 1020 30.12 849 25.07 10.2 50.4 36 -4 24.7
16:45 1020 30.12 849 25.07 10.3 50.5 36 -4.1 24.5
16:50 1020 30.12 849 25.07 10.2 50.3 37 -3.8 25.2
16:55 1020 30.12 849 25.07 10.2 50.4 36 -4 24.8
17:00 1020 30.12 849 25.07 10.2 50.4 36 -4.1 24.6
17:05 1020 30.12 849 25.07 10.3 50.5 36 -4 24.8
17:10 1020 30.12 849 25.07 10 49.9 35 -4.6 23.7
17:15 1020 30.12 849 25.07 9.9 49.7 37 -4.2 24.4
17:20 1020 30.12 849 25.07 9.6 49.2 38 -4.1 24.6
17:25 1020 30.12 849 25.07 9.4 48.9 39 -3.9 25
17:30 1019 30.09 849 25.07 9.2 48.5 39 -4.1 24.6
17:35 1019 30.09 848 25.04 9.1 48.4 38 -4.3 24.2
17:40 1019 30.09 849 25.07 9.1 48.4 41 -3.5 25.7
17:45 1019 30.09 849 25.07 9.1 48.5 37 -4.6 23.6
17:50 1019 30.09 848 25.04 9.3 48.7 40 -3.5 25.6
17:55 1019 30.09 848 25.04 9.4 48.8 39 -3.7 25.3
18:00 1019 30.09 849 25.07 9.3 48.7 40 -3.6 25.5
18:05 1019 30.09 848 25.04 9.4 48.8 39 -3.8 25.2
18:10 1019 30.09 849 25.07 9.5 49.1 39 -3.7 25.3
18:15 1019 30.09 849 25.07 9.4 49 40 -3.5 25.8
18:20 1019 30.09 849 25.07 9.3 48.7 40 -3.5 25.6
18:25 1019 30.09 849 25.07 9.1 48.4 41 -3.3 26.1
18:30 1019 30.09 849 25.07 8.9 48 42 -3.4 25.8
18:35 1019 30.09 849 25.07 8.8 47.8 43 -3.1 26.5
18:40 1019 30.09 849 25.07 8.2 46.7 47 -2.5 27.5
18:45 1019 30.09 849 25.07 7.6 45.6 51 -1.9 28.6
18:50 1020 30.12 849 25.07 7.3 45.1 50 -2.3 27.8
18:55 1019 30.09 849 25.07 7.3 45.2 51 -2.1 28.2
19:00 1019 30.09 849 25.07 7.1 44.8 52 -2 28.4
19:05 1019 30.09 849 25.07 7 44.7 55 -1.5 29.3
19:10 1019 30.09 849 25.07 6.7 44.1 55 -1.8 28.8
19:15 1020 30.12 849 25.07 6.6 43.9 55 -1.8 28.8
19:20 1019 30.09 849 25.07 6.6 43.8 56 -1.6 29.1
19:25 1019 30.09 849 25.07 6.6 43.9 53 -2.2 28
19:30 1019 30.09 849 25.07 6.5 43.7 54 -2.1 28.1
19:35 1019 30.09 848 25.04 6.1 43 55 -2.1 28.2
19:40 1019 30.09 848 25.04 5.9 42.6 54 -2.8 27
19:45 1019 30.09 848 25.04 6.2 43.1 52 -3.1 26.5
19:50 1019 30.09 848 25.04 6.1 43 54 -2.6 27.3
19:55 1019 30.09 848 25.04 5.9 42.6 55 -2.4 27.6
20:00 1019 30.09 848 25.04 5.2 41.4 60 -1.9 28.6
20:05 1019 30.09 848 25.04 4.5 40.1 61 -2.3 27.9
20:10 1019 30.09 848 25.04 4.4 39.9 59 -3 26.6
20:15 1019 30.09 848 25.04 4.5 40.1 60 -2.6 27.3
20:20 1019 30.09 848 25.04 4.5 40 57 -3.4 25.8
20:25 1019 30.09 848 25.04 4.7 40.4 53 -4.1 24.7
20:30 1019 30.09 848 25.04 4.9 40.8 56 -3.3 26.1
20:35 1019 30.09 848 25.04 4.5 40 55 -3.7 25.4
20:40 1019 30.09 848 25.04 4.2 39.5 57 -3.5 25.6
20:45 1019 30.09 848 25.04 4.1 39.4 55 -4.1 24.6
20:50 1019 30.09 848 25.04 4.4 40 53 -4.2 24.4
20:55 1019 30.09 848 25.04 4.7 40.4 53 -4.1 24.6
21:00 1019 30.09 848 25.04 4.9 40.9 52 -4.2 24.5
21:05 1019 30.09 848 25.04 5.1 41.2 52 -3.8 25.1
21:10 1019 30.09 848 25.04 4.9 40.9 48 -5.3 22.5
21:15 1019 30.09 848 25.04 5.4 41.7 46 -5.3 22.4
21:20 1019 30.09 848 25.04 5.6 42.1 43 -5.9 21.5
21:25 1019 30.09 848 25.04 6.2 43.2 41 -6.2 20.8
21:30 1019 30.09 848 25.04 7 44.6 38 -6.4 20.4
21:35 1019 30.09 848 25.04 7.6 45.6 41 -4.8 23.4
21:40 1019 30.09 848 25.04 6.8 44.2 44 -4.6 23.8
21:45 1019 30.09 848 25.04 6.2 43.2 41 -5.9 21.3
21:50 1019 30.09 848 25.04 6.2 43.2 40 -6.3 20.7
21:55 1019 30.09 848 25.04 6.7 44.1 37 -7.1 19.2
22:00 1019 30.09 848 25.04 7.5 45.4 38 -5.9 21.4
22:05 1019 30.09 848 25.04 6.9 44.4 42 -5.2 22.6
22:10 1019 30.09 848 25.04 6.8 44.2 39 -6.1 21.1
22:15 1019 30.09 848 25.04 6.8 44.2 37 -7 19.4
22:20 1019 30.09 848 25.04 7.1 44.7 34 -7.8 18
22:25 1019 30.09 848 25.04 7.5 45.5 34 -7.2 19
22:30 1019 30.09 848 25.04 7.3 45.1 34 -7.6 18.4
22:35 1019 30.09 848 25.04 7.5 45.4 33 -7.9 17.8
22:40 1019 30.09 848 25.04 8 46.3 32 -7.8 17.9
22:45 1019 30.09 848 25.04 8.3 46.9 32 -7.4 18.6
22:50 1019 30.09 848 25.04 8.2 46.8 32 -7.5 18.5
22:55 1019 30.09 848 25.04 8.3 46.9 32 -7.3 18.8
23:00 1019 30.09 848 25.04 8.4 47.1 31 -7.7 18.1
23:05 1019 30.09 848 25.04 8.7 47.6 32 -7.1 19.2
23:10 1019 30.09 848 25.04 8.6 47.4 31 -7.6 18.4
23:15 1019 30.09 848 25.04 8.7 47.7 31 -7.4 18.8
23:20 1019 30.09 848 25.04 8.9 48 30 -7.8 18
23:25 1019 30.09 848 25.04 9.2 48.6 29 -7.7 18.2
23:30 1019 30.09 848 25.04 9.4 48.8 29 -7.9 17.9
23:35 1019 30.09 848 25.04 9.5 49.1 29 -7.5 18.4
23:40 1019 30.09 848 25.04 9.2 48.5 33 -6.3 20.6
23:45 1019 30.09 848 25.04 8.3 46.9 32 -7.4 18.6
23:50 1019 30.09 848 25.04 8.5 47.3 32 -7.3 18.9
23:55 1019 30.09 848 25.04 8.6 47.4 31 -7.7 18.2
24:00 1019 30.09 848 25.04 8.7 47.7 31 -7.6 18.2